Time;durP1;ratioP1;P1;durP2;ratioP2;P2;SDS_P1;SDS_P2;PMS_P1;PMS_P2;Temp;Humidity;BMP_temperature;BMP_pressure;BME280_temperature;BME280_humidity;BME280_pressure;Samples;Min_cycle;Max_cycle;Signal;HPM_P1;HPM_P2
2021/06/29 00:01:07;;;;;;;1.30;1.20;;;;;;;15.61;98.19;100446.87;1729502;81;21035;-49
2021/06/29 00:03:34;;;;;;;1.60;1.50;;;;;;;15.57;98.50;100451.38;1711852;83;21040;-43
2021/06/29 00:06:00;;;;;;;2.40;1.35;;;;;;;15.54;98.80;100448.69;1713891;82;21000;-48
2021/06/29 00:08:26;;;;;;;3.35;1.75;;;;;;;15.54;99.10;100445.12;1707972;83;21336;-49
2021/06/29 00:10:53;;;;;;;2.58;1.25;;;;;;;15.55;99.38;100452.24;1701063;84;21497;-49
2021/06/29 00:13:21;;;;;;;1.55;0.95;;;;;;;15.56;99.59;100447.00;1702503;83;21061;-43
2021/06/29 00:15:47;;;;;;;12.03;2.22;;;;;;;15.57;99.67;100443.11;1700784;83;20977;-48
2021/06/29 00:18:14;;;;;;;1.62;1.25;;;;;;;15.59;99.68;100443.61;1700874;83;21025;-49
2021/06/29 00:20:40;;;;;;;1.62;1.52;;;;;;;15.59;99.76;100442.23;1700995;84;21021;-48
2021/06/29 00:23:06;;;;;;;4.83;1.17;;;;;;;15.61;99.99;100442.74;1711427;83;20997;-43
2021/06/29 00:25:33;;;;;;;2.95;1.67;;;;;;;15.65;100.00;100438.22;1754825;81;20980;-43
2021/06/29 00:27:59;;;;;;;2.52;1.65;;;;;;;15.69;100.00;100437.84;1739428;82;21017;-49
2021/06/29 00:30:25;;;;;;;2.15;1.42;;;;;;;15.74;100.00;100444.64;1750511;81;21080;-49
2021/06/29 00:32:52;;;;;;;2.60;1.42;;;;;;;15.76;99.81;100449.84;1721924;83;21494;-43
2021/06/29 00:35:18;;;;;;;2.22;1.70;;;;;;;15.71;99.45;100445.27;1721890;81;21022;-49
2021/06/29 00:37:45;;;;;;;1.75;1.30;;;;;;;15.62;99.45;100442.41;1725084;83;21029;-49
2021/06/29 00:40:12;;;;;;;1.65;1.52;;;;;;;15.56;99.64;100440.92;1721653;83;21553;-42
2021/06/29 00:42:39;;;;;;;1.87;1.30;;;;;;;15.52;99.90;100446.80;1720799;83;21039;-49
2021/06/29 00:45:07;;;;;;;2.58;0.95;;;;;;;15.47;99.98;100435.34;1725324;81;21168;-47
2021/06/29 00:47:33;;;;;;;5.95;1.67;;;;;;;15.44;100.00;100434.59;1725464;83;20973;-43
2021/06/29 00:49:59;;;;;;;2.02;1.47;;;;;;;15.41;100.00;100428.34;1725716;83;21471;-43
2021/06/29 00:52:26;;;;;;;1.55;1.30;;;;;;;15.37;100.00;100425.95;1725325;81;21045;-43
2021/06/29 00:54:52;;;;;;;1.72;1.17;;;;;;;15.32;100.00;100419.20;1725509;83;21045;-49
2021/06/29 00:57:18;;;;;;;1.90;1.30;;;;;;;15.27;100.00;100420.13;1696712;83;21031;-43
2021/06/29 00:59:44;;;;;;;2.12;1.12;;;;;;;15.20;100.00;100424.44;1721242;83;21514;-44
2021/06/29 01:02:11;;;;;;;2.37;1.50;;;;;;;15.14;100.00;100417.44;1722011;81;21000;-44
2021/06/29 01:04:38;;;;;;;2.08;1.45;;;;;;;15.07;100.00;100429.43;1720864;83;21055;-42
2021/06/29 01:07:06;;;;;;;4.60;1.42;;;;;;;14.96;100.00;100425.53;1720667;83;21062;-49
2021/06/29 01:09:33;;;;;;;2.08;1.60;;;;;;;14.89;100.00;100421.02;1725276;83;21013;-49
2021/06/29 01:11:59;;;;;;;3.52;1.85;;;;;;;14.87;100.00;100423.26;1725455;81;21419;-43
2021/06/29 01:14:26;;;;;;;2.35;1.10;;;;;;;14.85;100.00;100422.75;1725437;83;21452;-43
2021/06/29 01:16:52;;;;;;;1.52;1.42;;;;;;;14.82;100.00;100421.43;1711124;82;21095;-48
2021/06/29 01:19:21;;;;;;;2.05;1.47;;;;;;;14.79;100.00;100415.74;1707805;84;21052;-44
2021/06/29 01:21:49;;;;;;;1.42;1.25;;;;;;;14.78;100.00;100419.59;1710250;82;21020;-44
2021/06/29 01:24:20;;;;;;;1.95;1.57;;;;;;;14.77;100.00;100420.16;1720686;83;21498;-50
2021/06/29 01:26:54;;;;;;;1.65;1.37;;;;;;;14.75;100.00;100423.78;1721407;83;20994;-42
2021/06/29 01:29:17;;;;;;;1.92;1.45;;;;;;;14.72;100.00;100420.84;1724159;83;21495;-43
2021/06/29 01:31:43;;;;;;;1.27;0.95;;;;;;;14.69;100.00;100420.06;1735805;81;21087;-49
2021/06/29 01:34:09;;;;;;;2.27;1.35;;;;;;;14.67;100.00;100415.45;1754964;81;21414;-49
2021/06/29 01:36:37;;;;;;;2.02;1.50;;;;;;;14.65;100.00;100423.19;1722655;82;21466;-43
2021/06/29 01:39:09;;;;;;;1.92;1.35;;;;;;;14.63;100.00;100427.05;1712085;82;21417;-49
2021/06/29 01:41:35;;;;;;;2.33;1.35;;;;;;;14.62;100.00;100426.80;1714425;82;21584;-49
2021/06/29 01:44:09;;;;;;;2.55;1.25;;;;;;;14.63;100.00;100423.48;1754934;81;21387;-44
2021/06/29 01:46:33;;;;;;;3.60;1.45;;;;;;;14.66;100.00;100413.81;1735860;81;21017;-43
2021/06/29 01:48:58;;;;;;;3.37;1.25;;;;;;;14.67;100.00;100412.70;1754492;81;20969;-48
2021/06/29 01:51:24;;;;;;;4.22;1.47;;;;;;;14.71;100.00;100421.95;1727540;82;21020;-43
2021/06/29 01:53:52;;;;;;;1.55;1.27;;;;;;;14.76;100.00;100421.30;1737844;81;21036;-49
2021/06/29 01:56:25;;;;;;;1.62;1.20;;;;;;;14.85;100.00;100422.75;1711570;81;21479;-49
2021/06/29 01:58:53;;;;;;;3.47;1.90;;;;;;;14.96;100.00;100431.04;1710545;83;21033;-43
2021/06/29 02:01:16;;;;;;;3.33;1.62;;;;;;;15.03;100.00;100432.81;1749187;80;21021;-49
2021/06/29 02:03:42;;;;;;;3.10;1.60;;;;;;;15.07;100.00;100431.62;1755074;81;20992;-49
2021/06/29 02:06:08;;;;;;;2.08;1.37;;;;;;;15.11;100.00;100431.80;1739584;81;21053;-49
2021/06/29 02:08:34;;;;;;;2.22;1.55;;;;;;;15.17;100.00;100432.75;1754029;81;20992;-49
2021/06/29 02:11:01;;;;;;;2.02;1.30;;;;;;;15.20;100.00;100428.56;1753029;81;21500;-43
2021/06/29 02:13:27;;;;;;;2.33;1.60;;;;;;;15.23;100.00;100432.06;1739856;82;21514;-49
2021/06/29 02:15:55;;;;;;;2.65;1.60;;;;;;;15.27;100.00;100428.38;1716725;82;21042;-44
2021/06/29 02:18:24;;;;;;;2.12;1.62;;;;;;;15.31;100.00;100427.22;1704837;83;21008;-43
2021/06/29 02:20:51;;;;;;;3.12;1.85;;;;;;;15.37;100.00;100435.59;1714226;81;21024;-43
2021/06/29 02:23:17;;;;;;;2.17;1.65;;;;;;;15.44;100.00;100429.09;1711825;83;21076;-42
2021/06/29 02:25:44;;;;;;;2.80;1.50;;;;;;;15.53;100.00;100433.84;1750418;81;21975;-49
2021/06/29 02:28:10;;;;;;;1.85;1.07;;;;;;;15.64;100.00;100437.98;1718588;82;21001;-43
2021/06/29 02:30:41;;;;;;;2.92;1.10;;;;;;;15.80;100.00;100435.67;1714967;82;21146;-49
2021/06/29 02:33:08;;;;;;;2.42;1.20;;;;;;;15.96;100.00;100431.97;1721807;83;21041;-49
2021/06/29 02:35:35;;;;;;;3.12;1.82;;;;;;;16.15;100.00;100440.83;1722002;81;21470;-43
2021/06/29 02:38:03;;;;;;;2.35;1.32;;;;;;;16.32;100.00;100436.77;1721877;83;21456;-49
2021/06/29 02:40:29;;;;;;;2.83;1.10;;;;;;;16.51;100.00;100427.41;1721418;81;21080;-50
2021/06/29 02:42:56;;;;;;;2.25;1.22;;;;;;;16.69;100.00;100426.34;1721737;83;20992;-49
2021/06/29 02:45:22;;;;;;;1.95;1.37;;;;;;;16.85;100.00;100429.48;1722129;83;21453;-43
2021/06/29 02:47:49;;;;;;;3.25;1.95;;;;;;;17.03;99.82;100431.69;1721978;83;21005;-43
2021/06/29 02:50:16;;;;;;;1.95;1.50;;;;;;;17.19;98.94;100430.66;1722070;83;21015;-44
2021/06/29 02:52:42;;;;;;;2.22;1.57;;;;;;;17.34;97.92;100437.65;1721894;83;21013;-43
2021/06/29 02:55:10;;;;;;;5.35;1.62;;;;;;;17.48;97.23;100428.62;1722103;83;21027;-43
2021/06/29 02:57:37;;;;;;;1.32;1.02;;;;;;;17.63;96.54;100430.88;1721960;83;20988;-42
2021/06/29 03:00:11;;;;;;;1.65;1.07;;;;;;;17.82;95.59;100428.34;1699147;83;21078;-43
2021/06/29 03:02:37;;;;;;;1.80;1.47;;;;;;;17.98;94.81;100434.17;1721925;83;21481;-43
2021/06/29 03:05:04;;;;;;;1.77;1.17;;;;;;;18.12;93.96;100438.91;1721690;83;21034;-49
2021/06/29 03:07:31;;;;;;;2.08;1.45;;;;;;;18.24;93.08;100437.64;1722038;83;21017;-43
2021/06/29 03:09:57;;;;;;;2.60;1.30;;;;;;;18.36;91.97;100443.06;1721968;83;21483;-43
2021/06/29 03:12:24;;;;;;;1.90;1.22;;;;;;;18.46;91.34;100440.72;1721803;81;21465;-43
2021/06/29 03:14:55;;;;;;;1.42;1.32;;;;;;;18.57;90.62;100441.73;1721346;83;21073;-44
2021/06/29 03:17:19;;;;;;;1.87;1.67;;;;;;;18.64;90.00;100447.00;1721426;81;21475;-43
2021/06/29 03:19:45;;;;;;;1.60;1.20;;;;;;;18.72;89.37;100448.10;1721804;83;21008;-44
2021/06/29 03:22:11;;;;;;;2.72;1.80;;;;;;;18.79;88.60;100458.66;1721816;83;21004;-49
2021/06/29 03:24:38;;;;;;;2.62;1.37;;;;;;;18.84;88.00;100460.68;1722098;83;21503;-42
2021/06/29 03:27:05;;;;;;;2.40;1.65;;;;;;;18.86;87.46;100459.75;1721829;81;21715;-48
2021/06/29 03:29:32;;;;;;;1.12;1.02;;;;;;;18.87;86.66;100458.63;1721928;83;21011;-49
2021/06/29 03:31:58;;;;;;;2.00;1.52;;;;;;;18.87;86.23;100460.00;1723697;81;20981;-49
2021/06/29 03:34:24;;;;;;;7.37;2.30;;;;;;;18.86;85.94;100463.09;1725419;83;21053;-49
2021/06/29 03:36:51;;;;;;;1.20;1.02;;;;;;;18.87;85.88;100462.77;1724460;81;21464;-43
2021/06/29 03:39:18;;;;;;;2.37;1.42;;;;;;;18.88;85.85;100456.08;1720948;83;21011;-42
2021/06/29 03:41:44;;;;;;;2.92;1.87;;;;;;;18.95;86.00;100457.52;1724789;81;21504;-43
2021/06/29 03:44:11;;;;;;;2.02;1.67;;;;;;;19.01;85.30;100463.08;1722621;83;21015;-49
2021/06/29 03:46:37;;;;;;;2.02;1.35;;;;;;;19.08;85.16;100461.40;1723675;81;21052;-49
2021/06/29 03:49:03;;;;;;;3.58;1.77;;;;;;;19.13;84.84;100454.86;1724596;83;21046;-43
2021/06/29 03:51:30;;;;;;;6.20;1.80;;;;;;;19.18;84.88;100460.19;1724758;81;21005;-49
2021/06/29 03:53:56;;;;;;;1.45;1.22;;;;;;;19.27;84.58;100463.72;1725198;82;20949;-43
2021/06/29 03:56:29;;;;;;;2.85;1.70;;;;;;;19.37;84.31;100458.92;1725222;81;21416;-49
2021/06/29 03:58:59;;;;;;;2.30;1.67;;;;;;;19.44;84.28;100460.58;1721011;83;20996;-43
2021/06/29 04:01:26;;;;;;;2.90;1.70;;;;;;;19.50;83.72;100456.44;1723044;81;21466;-49
2021/06/29 04:03:54;;;;;;;1.90;1.52;;;;;;;19.53;83.47;100446.05;1720918;83;21017;-43
2021/06/29 04:06:26;;;;;;;1.92;1.27;;;;;;;19.60;83.60;100457.41;1720828;83;20927;-49
2021/06/29 04:08:53;;;;;;;2.87;2.20;;;;;;;19.73;83.44;100452.74;1691929;84;20967;-43
2021/06/29 04:11:19;;;;;;;2.85;1.67;;;;;;;19.87;82.52;100441.36;1691916;83;21060;-43
2021/06/29 04:13:46;;;;;;;3.00;1.62;;;;;;;19.95;82.04;100455.15;1713932;82;21057;-49
2021/06/29 04:16:12;;;;;;;2.72;1.85;;;;;;;20.10;81.30;100458.39;1723716;81;21053;-45
2021/06/29 04:18:39;;;;;;;1.62;1.22;;;;;;;20.22;80.92;100462.58;1712712;82;20931;-43
2021/06/29 04:21:05;;;;;;;2.80;1.62;;;;;;;20.35;80.64;100464.80;1720447;82;20996;-44
2021/06/29 04:23:32;;;;;;;2.25;1.72;;;;;;;20.46;79.95;100461.81;1720672;83;21019;-49
2021/06/29 04:25:58;;;;;;;2.05;1.32;;;;;;;20.56;79.68;100459.19;1724394;81;21452;-50
2021/06/29 04:28:25;;;;;;;2.67;2.15;;;;;;;20.66;79.70;100467.63;1717889;81;21052;-44
2021/06/29 04:30:51;;;;;;;2.02;1.80;;;;;;;20.71;79.03;100463.23;1715138;82;21602;-50
2021/06/29 04:33:18;;;;;;;4.37;1.57;;;;;;;20.73;79.00;100459.53;1717746;83;21391;-50
2021/06/29 04:35:44;;;;;;;2.70;1.37;;;;;;;20.78;78.85;100469.02;1713204;82;21034;-44
2021/06/29 04:38:11;;;;;;;2.50;1.45;;;;;;;20.83;78.41;100466.00;1718220;82;21044;-44
2021/06/29 04:40:37;;;;;;;2.65;1.92;;;;;;;20.91;78.17;100462.28;1713350;82;21558;-50
2021/06/29 04:43:03;;;;;;;2.35;1.98;;;;;;;21.03;78.25;100468.41;1678308;82;20902;-49
2021/06/29 04:45:31;;;;;;;2.72;1.72;;;;;;;21.18;77.69;100456.56;1724197;81;21447;-43
2021/06/29 04:47:57;;;;;;;2.58;1.85;;;;;;;21.33;76.77;100463.36;1723515;82;20966;-43
2021/06/29 04:50:24;;;;;;;3.37;1.80;;;;;;;21.43;75.92;100464.28;1721000;83;21194;-43
2021/06/29 04:52:50;;;;;;;3.02;1.82;;;;;;;21.48;75.23;100466.00;1723739;82;20997;-44
2021/06/29 04:55:17;;;;;;;3.22;2.12;;;;;;;21.52;75.49;100468.91;1712358;83;21061;-44
2021/06/29 04:57:44;;;;;;;3.47;2.12;;;;;;;21.59;75.53;100466.33;1729134;82;20997;-49
2021/06/29 05:00:14;;;;;;;2.05;1.85;;;;;;;21.66;75.25;100467.90;1715304;83;21046;-50
2021/06/29 05:02:40;;;;;;;3.50;2.12;;;;;;;21.74;75.11;100464.17;1712800;82;21063;-43
2021/06/29 05:05:08;;;;;;;3.90;2.47;;;;;;;21.83;74.29;100467.59;1727267;81;21959;-43
2021/06/29 05:07:39;;;;;;;2.42;1.65;;;;;;;21.93;73.39;100473.22;1689879;83;21010;-49
2021/06/29 05:10:10;;;;;;;4.17;2.33;;;;;;;21.99;73.52;100464.05;1722746;82;20981;-49
2021/06/29 05:12:36;;;;;;;2.80;1.62;;;;;;;22.08;73.35;100463.28;1722902;83;21585;-43
2021/06/29 05:15:07;;;;;;;2.12;1.65;;;;;;;22.18;72.92;100460.00;1721743;81;21032;-43
2021/06/29 05:17:33;;;;;;;3.37;2.20;;;;;;;22.26;72.92;100465.20;1722858;83;20994;-49
2021/06/29 05:19:59;;;;;;;2.65;2.30;;;;;;;22.33;72.38;100476.52;1722111;83;20977;-49
2021/06/29 05:22:25;;;;;;;3.62;1.87;;;;;;;22.34;72.41;100473.95;1720395;82;20986;-44
2021/06/29 05:24:52;;;;;;;3.72;2.37;;;;;;;22.37;72.32;100471.02;1702553;83;21066;-44
2021/06/29 05:27:18;;;;;;;2.77;2.02;;;;;;;22.33;71.80;100474.53;1713516;82;21013;-48
2021/06/29 05:29:44;;;;;;;3.87;2.67;;;;;;;22.24;71.88;100474.48;1712420;83;21483;-44
2021/06/29 05:32:10;;;;;;;3.30;2.22;;;;;;;22.18;72.08;100480.04;1709172;82;21369;-49
2021/06/29 05:34:37;;;;;;;3.72;2.37;;;;;;;22.14;72.06;100487.50;1718992;81;21008;-49
2021/06/29 05:37:04;;;;;;;4.58;2.50;;;;;;;22.10;72.40;100482.62;1724534;81;21005;-44
2021/06/29 05:39:30;;;;;;;3.05;1.80;;;;;;;22.07;72.87;100483.94;1756250;81;21536;-49
2021/06/29 05:41:56;;;;;;;5.08;2.33;;;;;;;22.08;73.86;100493.89;1756351;80;21585;-43
2021/06/29 05:44:23;;;;;;;2.45;2.25;;;;;;;22.16;74.13;100492.94;1756148;81;21036;-49
2021/06/29 05:46:51;;;;;;;2.67;1.75;;;;;;;22.24;74.06;100493.38;1756264;80;21053;-43
2021/06/29 05:49:17;;;;;;;4.20;2.10;;;;;;;22.27;73.79;100492.65;1752912;81;21514;-46
2021/06/29 05:51:46;;;;;;;2.47;1.87;;;;;;;22.22;73.96;100492.11;1716087;83;21013;-50
2021/06/29 05:54:13;;;;;;;3.75;2.58;;;;;;;22.18;74.61;100486.44;1723256;83;20989;-43
2021/06/29 05:56:40;;;;;;;2.45;2.02;;;;;;;22.18;74.79;100483.66;1723147;83;21527;-43
2021/06/29 05:59:08;;;;;;;3.70;2.95;;;;;;;22.22;74.97;100488.74;1723385;83;21454;-44
2021/06/29 06:01:35;;;;;;;3.62;2.37;;;;;;;22.27;74.56;100487.08;1694646;83;21502;-49
2021/06/29 06:04:01;;;;;;;5.05;2.47;;;;;;;22.24;74.70;100483.63;1723400;83;20997;-50
2021/06/29 06:06:27;;;;;;;2.40;2.12;;;;;;;22.28;74.78;100489.31;1722434;83;21022;-44
2021/06/29 06:08:53;;;;;;;3.33;2.08;;;;;;;22.32;74.78;100484.03;1679324;84;21028;-50
2021/06/29 06:11:20;;;;;;;5.42;1.98;;;;;;;22.39;74.96;100481.22;1715382;82;20981;-44
2021/06/29 06:13:46;;;;;;;3.60;2.27;;;;;;;22.46;74.87;100484.19;1708085;84;21049;-49
2021/06/29 06:16:13;;;;;;;2.75;2.42;;;;;;;22.60;75.63;100477.59;1707847;82;21439;-49
2021/06/29 06:18:42;;;;;;;3.80;2.40;;;;;;;22.78;74.58;100477.22;1707970;84;21040;-49
2021/06/29 06:21:08;;;;;;;3.92;2.05;;;;;;;22.86;73.62;100479.80;1708047;82;20941;-44
2021/06/29 06:23:35;;;;;;;4.08;2.50;;;;;;;22.93;74.31;100474.98;1710087;83;21030;-44
2021/06/29 06:26:01;;;;;;;3.25;2.55;;;;;;;23.05;74.02;100476.29;1692683;83;21026;-48
2021/06/29 06:28:27;;;;;;;3.12;2.00;;;;;;;23.18;73.74;100477.77;1691924;84;21017;-43
2021/06/29 06:30:54;;;;;;;3.35;2.33;;;;;;;23.33;73.54;100469.72;1691637;83;21024;-49
2021/06/29 06:33:21;;;;;;;3.55;2.12;;;;;;;23.45;72.19;100470.98;1693787;84;21488;-50
2021/06/29 06:35:49;;;;;;;6.22;2.20;;;;;;;23.54;71.37;100472.97;1694730;83;21461;-49
2021/06/29 06:38:16;;;;;;;3.60;2.02;;;;;;;23.65;70.53;100466.80;1695112;84;21452;-43
2021/06/29 06:40:42;;;;;;;3.10;2.00;;;;;;;23.75;70.38;100471.22;1699584;83;20997;-43
2021/06/29 06:43:09;;;;;;;3.77;2.33;;;;;;;23.76;69.93;100469.23;1723849;83;21637;-45
2021/06/29 06:45:36;;;;;;;6.67;2.50;;;;;;;23.73;70.66;100474.16;1710938;83;21459;-43
2021/06/29 06:48:03;;;;;;;3.35;2.20;;;;;;;23.79;71.19;100472.70;1710936;83;21032;-49
2021/06/29 06:50:29;;;;;;;5.70;3.27;;;;;;;23.86;71.01;100480.38;1723757;83;21001;-44
2021/06/29 06:52:55;;;;;;;3.58;2.65;;;;;;;23.95;71.21;100480.38;1711083;83;21032;-44
2021/06/29 06:55:25;;;;;;;2.62;1.85;;;;;;;24.06;70.58;100486.73;1722914;83;21506;-50
2021/06/29 06:57:55;;;;;;;2.25;1.92;;;;;;;24.19;69.61;100482.02;1710304;83;20910;-44
2021/06/29 07:00:22;;;;;;;2.55;1.92;;;;;;;24.37;69.25;100491.30;1707901;84;20985;-45
2021/06/29 07:02:49;;;;;;;2.25;2.02;;;;;;;24.58;68.86;100491.70;1720934;82;21012;-44
2021/06/29 07:05:15;;;;;;;4.00;1.95;;;;;;;24.72;67.49;100482.73;1707906;84;21036;-49
2021/06/29 07:07:42;;;;;;;10.75;2.60;;;;;;;24.87;66.78;100487.36;1708059;84;21033;-50
2021/06/29 07:10:09;;;;;;;5.53;2.83;;;;;;;25.16;67.47;100487.79;1707811;84;21126;-49
2021/06/29 07:12:36;;;;;;;3.72;2.10;;;;;;;25.47;65.68;100477.43;1720911;82;21048;-50
2021/06/29 07:15:04;;;;;;;2.65;2.45;;;;;;;25.59;64.54;100484.18;1709255;83;21025;-50
2021/06/29 07:17:36;;;;;;;3.00;2.27;;;;;;;25.70;64.27;100480.93;1710936;83;21101;-44
2021/06/29 07:20:04;;;;;;;2.00;1.85;;;;;;;25.99;63.64;100479.89;1685984;83;21542;-44
2021/06/29 07:22:31;;;;;;;2.70;1.90;;;;;;;26.19;60.92;100473.49;1711049;83;21085;-50
2021/06/29 07:24:57;;;;;;;3.02;1.52;;;;;;;26.28;60.65;100473.95;1711074;83;21093;-50
2021/06/29 07:27:24;;;;;;;2.37;1.55;;;;;;;26.43;61.32;100474.09;1697257;83;21085;-50
2021/06/29 07:29:51;;;;;;;1.82;1.40;;;;;;;26.52;60.17;100475.38;1692273;84;21085;-50
2021/06/29 07:32:17;;;;;;;2.15;1.92;;;;;;;26.56;59.72;100484.66;1705131;83;21089;-49
2021/06/29 07:34:43;;;;;;;1.82;1.40;;;;;;;26.67;59.69;100474.13;1719503;83;21006;-44
2021/06/29 07:37:12;;;;;;;1.65;1.32;;;;;;;26.63;58.21;100481.69;1719170;82;21010;-44
2021/06/29 07:39:38;;;;;;;1.82;1.37;;;;;;;26.65;57.64;100480.11;1719126;83;21010;-50
2021/06/29 07:42:07;;;;;;;2.92;1.55;;;;;;;26.80;57.15;100469.23;1718818;82;21022;-50
2021/06/29 07:44:34;;;;;;;1.82;1.70;;;;;;;26.95;56.87;100475.74;1719324;83;21429;-48
2021/06/29 07:47:00;;;;;;;1.72;1.30;;;;;;;27.05;55.71;100478.38;1722192;81;21045;-49
2021/06/29 07:49:27;;;;;;;1.95;1.60;;;;;;;27.10;53.96;100475.80;1721957;83;20963;-50
2021/06/29 07:51:54;;;;;;;1.62;1.52;;;;;;;27.18;54.40;100482.52;1722363;81;21077;-50
2021/06/29 07:54:20;;;;;;;1.67;1.12;;;;;;;27.22;54.46;100483.31;1722352;83;21025;-45
2021/06/29 07:56:46;;;;;;;1.50;1.40;;;;;;;27.29;54.04;100485.36;1722165;81;21520;-45
2021/06/29 07:59:13;;;;;;;1.20;1.10;;;;;;;27.38;52.56;100487.83;1721962;83;21058;-44
2021/06/29 08:01:39;;;;;;;1.60;1.42;;;;;;;27.53;53.50;100477.48;1722054;81;21061;-43
2021/06/29 08:04:06;;;;;;;1.82;1.52;;;;;;;27.77;52.92;100480.97;1721935;83;21015;-44
2021/06/29 08:06:32;;;;;;;1.20;1.10;;;;;;;27.99;50.78;100481.05;1721565;81;21010;-50
2021/06/29 08:09:00;;;;;;;1.40;1.30;;;;;;;28.02;50.18;100482.47;1722020;83;21038;-44
2021/06/29 08:11:26;;;;;;;1.22;1.12;;;;;;;28.01;50.06;100485.06;1721924;81;20955;-49
2021/06/29 08:13:53;;;;;;;1.67;1.05;;;;;;;27.98;49.66;100485.86;1722267;83;21073;-43
2021/06/29 08:16:20;;;;;;;1.47;1.30;;;;;;;27.93;50.24;100488.27;1722234;81;21014;-49
2021/06/29 08:18:46;;;;;;;1.15;1.05;;;;;;;27.84;49.76;100491.44;1722333;83;21050;-44
2021/06/29 08:21:13;;;;;;;1.07;0.93;;;;;;;27.65;48.88;100483.53;1719322;82;21022;-45
2021/06/29 08:23:39;;;;;;;1.50;1.12;;;;;;;27.63;48.56;100489.34;1718853;83;21050;-43
2021/06/29 08:26:06;;;;;;;2.17;1.15;;;;;;;27.73;49.38;100496.99;1722640;81;21492;-50
2021/06/29 08:28:34;;;;;;;1.07;0.98;;;;;;;27.81;49.07;100495.01;1723735;83;21526;-44
2021/06/29 08:31:01;;;;;;;1.62;0.82;;;;;;;27.88;48.92;100494.46;1723786;81;21464;-45
2021/06/29 08:33:27;;;;;;;1.45;1.10;;;;;;;27.94;48.20;100495.47;1723928;83;21525;-50
2021/06/29 08:35:53;;;;;;;1.02;0.90;;;;;;;27.86;48.79;100492.64;1724054;81;21021;-44
2021/06/29 08:38:20;;;;;;;1.80;1.35;;;;;;;27.92;50.16;100488.87;1729664;82;21056;-49
2021/06/29 08:40:46;;;;;;;1.20;0.88;;;;;;;28.11;48.50;100486.28;1746466;81;21017;-44
2021/06/29 08:43:13;;;;;;;1.00;0.90;;;;;;;28.19;48.49;100486.52;1755482;81;21001;-50
2021/06/29 08:45:39;;;;;;;2.37;1.20;;;;;;;28.39;47.26;100488.92;1755257;81;21037;-44
2021/06/29 08:48:06;;;;;;;1.17;1.07;;;;;;;28.63;47.85;100488.16;1755600;81;20981;-49
2021/06/29 08:50:33;;;;;;;1.02;0.68;;;;;;;28.83;45.22;100486.34;1755374;81;21022;-50
2021/06/29 08:53:03;;;;;;;1.07;0.95;;;;;;;28.81;44.22;100485.94;1755900;81;21036;-50
2021/06/29 08:55:38;;;;;;;1.35;1.05;;;;;;;28.70;45.19;100490.97;1755520;81;20909;-50
2021/06/29 08:58:05;;;;;;;3.30;1.02;;;;;;;28.57;46.87;100495.40;1754637;81;20974;-43
2021/06/29 09:00:31;;;;;;;1.37;1.20;;;;;;;28.42;47.76;100486.73;1755409;81;20874;-50
2021/06/29 09:02:58;;;;;;;1.12;0.93;;;;;;;28.39;46.80;100480.49;1755715;81;21467;-49
2021/06/29 09:05:26;;;;;;;0.70;0.60;;;;;;;28.41;47.29;100479.50;1724685;82;21095;-44
2021/06/29 09:08:06;;;;;;;1.17;0.90;;;;;;;28.53;46.25;100479.12;1731948;82;21453;-50
2021/06/29 09:10:34;;;;;;;1.20;0.93;;;;;;;28.70;46.42;100475.51;1731557;82;20980;-49
2021/06/29 09:13:05;;;;;;;0.77;0.77;;;;;;;28.97;44.45;100468.66;1732095;82;21013;-44
2021/06/29 09:15:41;;;;;;;1.15;0.82;;;;;;;29.12;43.11;100468.84;1731440;82;21915;-50
2021/06/29 09:18:13;;;;;;;0.90;0.80;;;;;;;29.18;43.15;100465.00;1731585;82;21035;-49
2021/06/29 09:20:57;;;;;;;0.98;0.88;;;;;;;29.22;42.65;100454.55;1731288;82;21533;-45
2021/06/29 09:23:29;;;;;;;1.02;0.95;;;;;;;29.31;43.66;100461.35;1731340;82;20988;-48
2021/06/29 09:26:12;;;;;;;0.90;0.80;;;;;;;29.51;42.00;100454.63;1724928;82;21410;-50
2021/06/29 09:28:48;;;;;;;1.25;1.10;;;;;;;29.64;40.91;100441.50;1702263;84;21052;-44
2021/06/29 09:31:20;;;;;;;2.35;0.90;;;;;;;29.54;40.94;100449.59;1716171;82;21609;-50
2021/06/29 09:33:58;;;;;;;1.27;1.02;;;;;;;29.51;42.12;100444.78;1729484;82;21079;-44
2021/06/29 09:36:26;;;;;;;0.85;0.82;;;;;;;29.46;42.29;100441.59;1727987;81;21063;-44
2021/06/29 09:38:57;;;;;;;1.72;1.62;;;;;;;29.41;43.67;100436.40;1728787;82;21020;-44
2021/06/29 09:41:29;;;;;;;2.25;1.40;;;;;;;29.62;43.75;100434.07;1728807;81;21044;-50
2021/06/29 09:44:05;;;;;;;1.10;1.02;;;;;;;29.90;43.39;100427.52;1728768;83;20985;-50
2021/06/29 09:46:36;;;;;;;0.80;0.70;;;;;;;30.17;42.33;100422.09;1729189;81;21016;-50
2021/06/29 09:49:14;;;;;;;2.40;1.27;;;;;;;30.27;40.65;100417.00;1728616;83;21458;-50
2021/06/29 09:51:44;;;;;;;1.32;1.20;;;;;;;30.20;40.82;100412.19;1728907;81;20953;-50
2021/06/29 09:54:13;;;;;;;1.72;1.05;;;;;;;30.19;41.18;100412.01;1728469;81;20992;-50
2021/06/29 09:56:43;;;;;;;1.25;1.15;;;;;;;30.29;40.98;100408.94;1728402;82;21025;-45
2021/06/29 09:59:19;;;;;;;1.10;1.00;;;;;;;30.40;42.07;100413.86;1727661;83;21060;-50
2021/06/29 10:01:46;;;;;;;1.10;1.00;;;;;;;30.49;40.65;100413.97;1697484;82;21014;-44
2021/06/29 10:04:13;;;;;;;1.95;1.12;;;;;;;30.60;40.44;100409.05;1715124;82;21571;-50
2021/06/29 10:06:39;;;;;;;0.80;0.70;;;;;;;30.68;39.82;100397.88;1676375;83;21637;-45
2021/06/29 10:09:13;;;;;;;1.32;0.85;;;;;;;30.52;40.63;100401.89;1682346;81;21007;-45
2021/06/29 10:11:53;;;;;;;1.20;1.02;;;;;;;30.34;41.06;100403.44;1699723;83;21032;-50
2021/06/29 10:14:25;;;;;;;1.98;0.78;;;;;;;30.29;41.01;100397.67;1709983;83;21391;-44
2021/06/29 10:16:52;;;;;;;0.98;0.93;;;;;;;30.30;41.02;100402.08;1701821;82;21563;-50
2021/06/29 10:19:47;;;;;;;1.17;1.07;;;;;;;30.37;42.09;100400.61;1699759;83;20964;-44
2021/06/29 10:22:04;;;;;;;1.17;1.00;;;;;;;30.44;41.81;100401.16;1706134;81;21052;-46
2021/06/29 10:24:35;;;;;;;1.65;1.22;;;;;;;30.55;40.97;100399.02;1733008;82;20969;-50
2021/06/29 10:27:08;;;;;;;1.17;0.95;;;;;;;30.60;41.62;100389.31;1732882;81;21022;-48
2021/06/29 10:29:35;;;;;;;1.25;1.15;;;;;;;30.63;41.58;100396.92;1732868;82;21024;-45
2021/06/29 10:32:09;;;;;;;1.10;1.10;;;;;;;30.56;39.10;100383.69;1733077;81;21025;-45
2021/06/29 10:34:37;;;;;;;0.80;0.80;;;;;;;30.41;39.74;100383.64;1731251;82;20995;-50
2021/06/29 10:42:02;;;;;;;1.45;1.15;;;;;;;30.11;40.16;100388.52;1722412;83;21014;-45
2021/06/29 10:44:36;;;;;;;1.57;1.42;;;;;;;29.88;40.70;100394.73;1697804;83;21007;-50
2021/06/29 10:47:03;;;;;;;2.05;1.12;;;;;;;29.67;41.58;100402.09;1703133;82;21026;-50
2021/06/29 10:49:39;;;;;;;1.57;1.00;;;;;;;29.39;42.41;100404.43;1665539;84;21025;-45
2021/06/29 10:52:50;;;;;;;1.50;1.27;;;;;;;29.13;43.11;100400.94;1691481;83;21367;-50
2021/06/29 10:55:26;;;;;;;1.87;1.45;;;;;;;28.95;43.83;100408.58;1699176;82;21577;-45
2021/06/29 10:57:57;;;;;;;1.00;0.78;;;;;;;28.55;43.95;100402.24;1711682;82;20930;-50
2021/06/29 11:00:31;;;;;;;1.10;0.93;;;;;;;28.11;45.28;100404.83;1738053;82;21181;-50
2021/06/29 11:03:07;;;;;;;1.00;0.90;;;;;;;27.72;47.09;100419.61;1714169;83;21057;-45
2021/06/29 11:05:43;;;;;;;1.32;1.22;;;;;;;27.12;49.23;100417.33;1714798;82;21018;-49
2021/06/29 11:08:16;;;;;;;1.20;1.10;;;;;;;26.53;49.54;100422.40;1714950;83;21495;-50
2021/06/29 11:10:47;;;;;;;1.25;1.07;;;;;;;26.21;50.59;100422.68;1715049;82;20934;-49
2021/06/29 11:13:14;;;;;;;1.27;1.17;;;;;;;25.99;51.49;100428.10;1712386;83;21506;-44
2021/06/29 11:24:38;;;;;;;4.62;1.52;;;;;;;24.67;62.51;100467.69;1681193;85;21007;-51
2021/06/29 11:27:07;;;;;;;1.27;1.17;;;;;;;23.78;66.72;100464.09;1681119;84;21041;-46
2021/06/29 11:29:40;;;;;;;1.10;0.90;;;;;;;23.31;69.85;100459.52;1722371;82;20994;-51
2021/06/29 11:32:29;;;;;;;2.42;1.40;;;;;;;23.01;71.26;100465.63;1720120;83;21039;-46
2021/06/29 11:35:13;;;;;;;2.25;1.05;;;;;;;22.83;72.58;100458.23;1686012;82;21030;-51
2021/06/29 11:38:04;;;;;;;1.55;1.02;;;;;;;22.74;74.08;100459.81;1719391;83;20994;-52
2021/06/29 11:40:31;;;;;;;1.57;1.07;;;;;;;22.74;74.96;100454.23;1729117;81;21363;-51
2021/06/29 11:43:09;;;;;;;1.42;0.98;;;;;;;22.74;75.40;100454.23;1685676;84;21024;-45